createdAt,value
2022-09-26T00:01:21.453Z,98158.97
2022-09-26T00:03:51.864Z,98151.72
2022-09-26T00:06:20.043Z,98153.38
2022-09-26T00:08:48.933Z,98155.06
2022-09-26T00:11:19.732Z,98148.69
2022-09-26T00:13:47.182Z,98152.72
2022-09-26T00:16:15.729Z,98152.13
2022-09-26T00:18:43.070Z,98149.94
2022-09-26T00:21:14.822Z,98145.81
2022-09-26T00:23:42.588Z,98144.59
2022-09-26T00:26:10.776Z,98143.84
2022-09-26T00:28:38.188Z,98130.97
2022-09-26T00:31:07.226Z,98124.69
2022-09-26T00:33:34.382Z,98137.72
2022-09-26T00:36:01.647Z,98130.28
2022-09-26T00:38:28.671Z,98124.75
2022-09-26T00:40:55.880Z,98125.06
2022-09-26T00:43:46.631Z,98138.47
2022-09-26T00:46:13.557Z,98157.25
2022-09-26T00:48:42.201Z,98161.16
2022-09-26T00:51:10.201Z,98170.44
2022-09-26T00:53:42.684Z,98180.88
2022-09-26T00:56:16.891Z,98180.59
2022-09-26T00:58:50.224Z,98184.91
2022-09-26T01:01:18.601Z,98175.66
2022-09-26T01:03:48.653Z,98171.50
2022-09-26T01:06:16.324Z,98170.06
2022-09-26T01:08:50.388Z,98164.50
2022-09-26T01:11:17.782Z,98163.03
2022-09-26T01:13:45.492Z,98164.94
2022-09-26T01:16:12.591Z,98165.06
2022-09-26T01:18:40.062Z,98162.28
2022-09-26T01:21:35.389Z,98173.91
2022-09-26T01:24:35.983Z,98183.59
2022-09-26T01:27:24.658Z,98181.34
2022-09-26T01:30:11.435Z,98188.94
2022-09-26T01:33:02.162Z,98194.91
2022-09-26T01:35:53.832Z,98192.53
2022-09-26T01:38:30.499Z,98191.16
2022-09-26T01:41:18.887Z,98184.34
2022-09-26T01:43:46.071Z,98180.91
2022-09-26T01:46:41.727Z,98182.91
2022-09-26T01:49:37.800Z,98174.66
2022-09-26T01:52:24.949Z,98175.06
2022-09-26T01:54:57.228Z,98183.75
2022-09-26T01:57:31.176Z,98193.75
2022-09-26T02:00:02.437Z,98184.75
2022-09-26T02:02:36.428Z,98176.81
2022-09-26T02:05:25.434Z,98177.75
2022-09-26T02:08:17.901Z,98177.16
2022-09-26T02:10:49.745Z,98179.84
2022-09-26T02:13:39.488Z,98171.81
2022-09-26T02:16:10.134Z,98166.13
2022-09-26T02:19:00.500Z,98174.59
2022-09-26T02:21:27.647Z,98166.28
2022-09-26T02:23:55.231Z,98160.59
2022-09-26T02:26:23.661Z,98163.59
2022-09-26T02:28:51.108Z,98162.72
2022-09-26T02:31:22.986Z,98159.41
2022-09-26T02:33:51.473Z,98153.63
2022-09-26T02:36:22.507Z,98155.00
2022-09-26T02:38:50.025Z,98157.66
2022-09-26T02:41:35.401Z,98161.50
2022-09-26T02:44:02.391Z,98165.44
2022-09-26T02:46:41.387Z,98155.66
2022-09-26T02:49:26.969Z,98156.06
2022-09-26T02:51:59.804Z,98163.31
2022-09-26T02:54:45.216Z,98149.91
2022-09-26T02:57:26.954Z,98145.56
2022-09-26T03:00:19.334Z,98151.88
2022-09-26T03:03:19.999Z,98155.06
2022-09-26T03:05:49.488Z,98158.66
2022-09-26T03:08:20.866Z,98160.00
2022-09-26T03:10:49.755Z,98152.03
2022-09-26T03:13:18.797Z,98141.56
2022-09-26T03:15:53.915Z,98151.38
2022-09-26T03:18:24.922Z,98141.16
2022-09-26T03:20:54.928Z,98137.03
2022-09-26T03:23:26.706Z,98129.41
2022-09-26T03:26:12.087Z,98126.16
2022-09-26T03:28:39.120Z,98135.84
2022-09-26T03:31:07.565Z,98147.59
2022-09-26T03:33:34.631Z,98146.94
2022-09-26T03:36:06.648Z,98137.69
2022-09-26T03:38:33.632Z,98133.25
2022-09-26T03:41:00.793Z,98128.13
2022-09-26T03:43:28.050Z,98125.91
2022-09-26T03:45:55.429Z,98129.84
2022-09-26T03:48:22.461Z,98138.91
2022-09-26T03:50:49.553Z,98139.22
2022-09-26T03:53:16.593Z,98138.28
2022-09-26T03:55:43.533Z,98141.53
2022-09-26T03:58:10.660Z,98147.47
2022-09-26T04:00:39.656Z,98142.69
2022-09-26T04:03:06.918Z,98147.63
2022-09-26T04:05:33.978Z,98154.00
2022-09-26T04:08:05.981Z,98145.28
2022-09-26T04:10:33.510Z,98143.84
2022-09-26T04:13:00.576Z,98135.81
2022-09-26T04:15:28.810Z,98134.81
2022-09-26T04:17:56.032Z,98129.63
2022-09-26T04:20:23.019Z,98120.91
2022-09-26T04:22:50.003Z,98123.78
2022-09-26T04:25:17.055Z,98138.13
2022-09-26T04:27:44.065Z,98131.03
2022-09-26T04:30:12.521Z,98131.88
2022-09-26T04:32:39.510Z,98138.19
2022-09-26T04:35:06.990Z,98135.72
2022-09-26T04:37:37.311Z,98130.31
2022-09-26T04:40:05.036Z,98127.09
2022-09-26T04:42:37.244Z,98123.63
2022-09-26T04:45:05.341Z,98115.72
2022-09-26T04:47:32.833Z,98115.19
2022-09-26T04:49:59.946Z,98106.34
2022-09-26T04:52:26.975Z,98092.84
2022-09-26T04:54:53.996Z,98108.44
2022-09-26T04:57:21.367Z,98122.88
2022-09-26T04:59:48.353Z,98127.28
2022-09-26T05:02:15.374Z,98134.19
2022-09-26T05:04:42.425Z,98147.91
2022-09-26T05:07:09.387Z,98147.75
2022-09-26T05:09:36.545Z,98152.25
2022-09-26T05:12:03.873Z,98155.22
2022-09-26T05:14:30.861Z,98150.44
2022-09-26T05:16:57.826Z,98161.88
2022-09-26T05:19:24.887Z,98158.97
2022-09-26T05:21:51.836Z,98161.16
2022-09-26T05:24:37.433Z,98162.91
2022-09-26T05:27:07.196Z,98159.28
2022-09-26T05:29:34.251Z,98164.03
2022-09-26T05:32:01.795Z,98172.16
2022-09-26T05:34:28.918Z,98172.28
2022-09-26T05:36:56.790Z,98169.31
2022-09-26T05:39:42.839Z,98168.00
2022-09-26T05:42:09.996Z,98166.84
2022-09-26T05:44:36.943Z,98166.06
2022-09-26T05:47:04.102Z,98167.16
2022-09-26T05:49:33.006Z,98160.94
2022-09-26T05:52:00.143Z,98168.09
2022-09-26T05:54:27.938Z,98168.09
2022-09-26T05:56:55.066Z,98168.31
2022-09-26T05:59:22.316Z,98168.97
2022-09-26T06:01:49.372Z,98175.72
2022-09-26T06:04:16.440Z,98176.66
2022-09-26T06:06:44.508Z,98182.00
2022-09-26T06:09:11.639Z,98186.34
2022-09-26T06:11:38.701Z,98182.91
2022-09-26T06:14:07.114Z,98187.25
2022-09-26T06:16:34.634Z,98187.69
2022-09-26T06:19:02.852Z,98178.56
2022-09-26T06:21:30.154Z,98177.25
2022-09-26T06:23:57.256Z,98182.03
2022-09-26T06:26:26.404Z,98197.13
2022-09-26T06:29:00.975Z,98204.34
2022-09-26T06:31:29.014Z,98202.91
2022-09-26T06:33:56.709Z,98204.56
2022-09-26T06:36:24.187Z,98206.22
2022-09-26T06:38:51.768Z,98201.31
2022-09-26T06:41:20.002Z,98197.81
2022-09-26T06:43:47.854Z,98211.22
2022-09-26T06:46:15.631Z,98201.59
2022-09-26T06:48:42.930Z,98206.09
2022-09-26T06:51:13.634Z,98191.75
2022-09-26T06:53:40.932Z,98191.31
2022-09-26T06:56:08.441Z,98191.09
2022-09-26T06:58:35.501Z,98184.34
2022-09-26T07:01:03.159Z,98189.03
2022-09-26T07:03:30.350Z,98201.88
2022-09-26T07:05:58.368Z,98199.75
2022-09-26T07:08:50.139Z,98195.78
2022-09-26T07:14:02.365Z,98190.97
2022-09-26T07:16:29.828Z,98189.03
2022-09-26T07:18:57.501Z,98185.16
2022-09-26T07:21:24.904Z,98183.78
2022-09-26T07:24:05.382Z,98192.63
2022-09-26T07:26:32.450Z,98184.47
2022-09-26T07:28:59.384Z,98178.25
2022-09-26T07:31:27.002Z,98185.19
2022-09-26T07:33:54.305Z,98186.72
2022-09-26T07:36:21.431Z,98200.22
2022-09-26T07:38:48.830Z,98200.06
2022-09-26T07:41:16.884Z,98204.00
2022-09-26T07:46:49.566Z,98190.63
2022-09-26T07:49:35.186Z,98194.22
2022-09-26T07:52:02.371Z,98207.06
2022-09-26T07:54:29.420Z,98205.25
2022-09-26T07:56:56.410Z,98209.34
2022-09-26T07:59:23.488Z,98221.69
2022-09-26T08:01:53.196Z,98227.78
2022-09-26T08:04:20.585Z,98226.59
2022-09-26T08:06:47.607Z,98234.13
2022-09-26T08:09:15.398Z,98244.56
2022-09-26T08:11:42.876Z,98255.28
2022-09-26T08:14:10.213Z,98260.19
2022-09-26T08:16:41.765Z,98260.69
2022-09-26T08:19:12.980Z,98268.88
2022-09-26T08:21:39.957Z,98271.75
2022-09-26T08:24:07.112Z,98276.75
2022-09-26T08:26:34.151Z,98287.66
2022-09-26T08:29:02.366Z,98289.56
2022-09-26T08:31:29.493Z,98288.53
2022-09-26T08:33:56.972Z,98288.72
2022-09-26T08:36:23.916Z,98282.03
2022-09-26T08:38:51.111Z,98283.69
2022-09-26T08:41:47.726Z,98278.88
2022-09-26T08:44:44.301Z,98276.72
2022-09-26T08:47:30.131Z,98281.53
2022-09-26T08:50:15.120Z,98289.06
2022-09-26T08:52:57.166Z,98300.28
2022-09-26T08:55:31.821Z,98304.03
2022-09-26T08:58:01.789Z,98311.84
2022-09-26T09:00:32.905Z,98312.06
2022-09-26T09:03:10.554Z,98318.69
2022-09-26T09:05:42.398Z,98331.44
2022-09-26T09:08:22.821Z,98339.88
2022-09-26T09:11:16.909Z,98335.00
2022-09-26T09:14:11.377Z,98329.00
2022-09-26T09:16:45.153Z,98324.84
2022-09-26T09:19:27.126Z,98331.81
2022-09-26T09:22:25.615Z,98329.31
2022-09-26T09:25:24.540Z,98330.84
2022-09-26T09:28:18.287Z,98334.41
2022-09-26T09:31:02.528Z,98342.81
2022-09-26T09:33:39.804Z,98348.91
2022-09-26T09:36:15.483Z,98359.63
2022-09-26T09:38:46.246Z,98363.03
2022-09-26T09:41:20.184Z,98361.81
2022-09-26T09:43:54.811Z,98360.81
2022-09-26T09:46:29.442Z,98360.03
2022-09-26T09:49:08.966Z,98351.53
2022-09-26T09:52:02.525Z,98350.63
2022-09-26T09:54:49.234Z,98343.53
2022-09-26T09:57:48.358Z,98359.09
2022-09-26T10:00:17.189Z,98354.22
2022-09-26T10:03:03.120Z,98345.72
2022-09-26T10:05:45.552Z,98343.97
2022-09-26T10:08:17.107Z,98331.66
2022-09-26T10:11:09.480Z,98320.59
2022-09-26T10:13:39.233Z,98316.75
2022-09-26T10:16:08.505Z,98320.50
2022-09-26T10:18:57.162Z,98328.47
2022-09-26T10:21:35.828Z,98340.53
2022-09-26T10:24:05.162Z,98358.94
2022-09-26T10:26:35.866Z,98365.94
2022-09-26T10:29:35.676Z,98379.44
2022-09-26T10:32:04.452Z,98376.78
2022-09-26T10:34:37.243Z,98378.38
2022-09-26T10:37:26.149Z,98376.63
2022-09-26T10:40:17.303Z,98369.63
2022-09-26T10:42:47.453Z,98365.78
2022-09-26T10:45:18.238Z,98372.63
2022-09-26T10:47:51.124Z,98359.28
2022-09-26T10:50:26.724Z,98356.63
2022-09-26T10:53:14.581Z,98354.69
2022-09-26T10:55:48.470Z,98372.38
2022-09-26T10:58:19.982Z,98376.09
2022-09-26T11:00:53.372Z,98392.25
2022-09-26T11:03:24.739Z,98391.22
2022-09-26T11:05:57.795Z,98401.75
2022-09-26T11:08:30.445Z,98400.94
2022-09-26T11:11:11.549Z,98404.84
2022-09-26T11:13:46.698Z,98408.75
2022-09-26T11:16:16.503Z,98410.97
2022-09-26T11:18:52.262Z,98403.19
2022-09-26T11:21:37.951Z,98379.56
2022-09-26T11:24:15.164Z,98365.84
2022-09-26T11:26:53.629Z,98367.94
2022-09-26T11:29:43.025Z,98386.16
2022-09-26T11:32:29.366Z,98400.94
2022-09-26T11:35:02.671Z,98405.47
2022-09-26T11:38:05.831Z,98388.50
2022-09-26T11:40:47.889Z,98365.66
2022-09-26T11:43:50.255Z,98357.66
2022-09-26T11:46:27.695Z,98359.66
2022-09-26T11:49:11.469Z,98341.47
2022-09-26T11:52:04.183Z,98345.59
2022-09-26T11:55:03.331Z,98359.50
2022-09-26T11:57:57.843Z,98362.81
2022-09-26T12:00:29.346Z,98367.16
2022-09-26T12:03:14.972Z,98367.09
2022-09-26T12:05:59.926Z,98361.28
2022-09-26T12:08:41.096Z,98353.72
2022-09-26T12:11:38.293Z,98368.00
2022-09-26T12:14:53.800Z,98368.22
2022-09-26T12:17:35.490Z,98366.56
2022-09-26T12:20:17.315Z,98358.38
2022-09-26T12:22:47.345Z,98324.78
2022-09-26T12:25:30.735Z,98301.22
2022-09-26T12:28:34.573Z,98302.88
2022-09-26T12:31:19.795Z,98315.44
2022-09-26T12:33:58.817Z,98301.56
2022-09-26T12:36:48.192Z,98287.03
2022-09-26T12:39:35.869Z,98285.97
2022-09-26T12:42:11.379Z,98279.16
2022-09-26T12:45:07.760Z,98293.47
2022-09-26T12:47:51.022Z,98306.25
2022-09-26T12:50:26.322Z,98300.47
2022-09-26T12:53:10.469Z,98294.09
2022-09-26T12:55:51.955Z,98297.19
2022-09-26T12:58:43.995Z,98295.91
2022-09-26T13:01:45.296Z,98302.84
2022-09-26T13:04:54.772Z,98307.84
2022-09-26T13:07:48.272Z,98317.81
2022-09-26T13:10:37.053Z,98322.66
2022-09-26T13:14:10.957Z,98320.50
2022-09-26T13:16:49.367Z,98323.91
2022-09-26T13:19:54.543Z,98318.25
2022-09-26T13:22:46.188Z,98311.88
2022-09-26T13:25:18.040Z,98308.31
2022-09-26T13:27:54.836Z,98305.03
2022-09-26T13:30:36.026Z,98306.00
2022-09-26T13:33:26.014Z,98297.03
2022-09-26T13:35:56.670Z,98304.25
2022-09-26T13:38:45.420Z,98289.84
2022-09-26T13:41:31.184Z,98281.16
2022-09-26T13:44:19.959Z,98276.13
2022-09-26T13:47:02.162Z,98271.44
2022-09-26T13:49:43.175Z,98279.75
2022-09-26T13:52:24.456Z,98275.78
2022-09-26T13:55:12.889Z,98266.06
2022-09-26T13:58:07.279Z,98256.63
2022-09-26T14:00:41.159Z,98267.63
2022-09-26T14:03:14.285Z,98262.75
2022-09-26T14:05:48.055Z,98275.53
2022-09-26T14:08:45.785Z,98277.63
2022-09-26T14:11:32.956Z,98270.50
2022-09-26T14:14:18.489Z,98282.34
2022-09-26T14:16:53.353Z,98288.41
2022-09-26T14:19:39.525Z,98300.00
2022-09-26T14:22:26.471Z,98311.44
2022-09-26T14:24:54.501Z,98300.56
2022-09-26T14:27:21.463Z,98296.50
2022-09-26T14:29:53.206Z,98302.84
2022-09-26T14:32:27.572Z,98306.81
2022-09-26T14:34:54.838Z,98315.94
2022-09-26T14:37:24.803Z,98313.63
2022-09-26T14:40:00.684Z,98318.03
2022-09-26T14:42:33.919Z,98323.88
2022-09-26T14:45:05.406Z,98322.13
2022-09-26T14:47:55.580Z,98328.00
2022-09-26T14:50:31.495Z,98324.13
2022-09-26T14:53:03.115Z,98333.88
2022-09-26T14:55:31.266Z,98333.41
2022-09-26T14:58:38.123Z,98333.25
2022-09-26T15:01:05.950Z,98329.25
2022-09-26T15:03:34.919Z,98330.69
2022-09-26T15:06:05.878Z,98320.53
2022-09-26T15:08:39.301Z,98321.31
2022-09-26T15:11:07.766Z,98329.50
2022-09-26T15:13:37.270Z,98328.75
2022-09-26T15:16:16.310Z,98327.06
2022-09-26T15:19:00.466Z,98332.66
2022-09-26T15:21:37.028Z,98332.38
2022-09-26T15:24:22.127Z,98333.84
2022-09-26T15:26:50.365Z,98320.66
2022-09-26T15:29:17.687Z,98331.56
2022-09-26T15:31:46.552Z,98331.53
2022-09-26T15:34:21.655Z,98322.84
2022-09-26T15:36:56.821Z,98321.94
2022-09-26T15:39:33.329Z,98321.19
2022-09-26T15:42:37.384Z,98328.19
2022-09-26T15:45:27.836Z,98308.66
2022-09-26T15:47:56.893Z,98309.50
2022-09-26T15:50:32.073Z,98315.75
2022-09-26T15:53:17.839Z,98311.41
2022-09-26T15:56:05.591Z,98306.28
2022-09-26T15:58:51.202Z,98307.84
2022-09-26T16:01:24.122Z,98311.00
2022-09-26T16:04:13.701Z,98301.38
2022-09-26T16:06:54.876Z,98319.91
2022-09-26T16:09:34.037Z,98321.84
2022-09-26T16:12:22.820Z,98315.88
2022-09-26T16:15:00.286Z,98316.25
2022-09-26T16:17:37.734Z,98316.75
2022-09-26T16:20:13.933Z,98323.56
2022-09-26T16:22:46.040Z,98325.06
2022-09-26T16:25:16.154Z,98308.56
2022-09-26T16:27:43.624Z,98317.22
2022-09-26T16:30:29.028Z,98320.69
2022-09-26T16:33:13.872Z,98319.19
2022-09-26T16:35:48.569Z,98320.00
2022-09-26T16:38:25.675Z,98322.53
2022-09-26T16:40:55.291Z,98315.34
2022-09-26T16:43:29.014Z,98315.88
2022-09-26T16:46:18.141Z,98312.94
2022-09-26T16:48:51.048Z,98318.34
2022-09-26T16:51:21.554Z,98340.44
2022-09-26T16:54:08.928Z,98343.66
2022-09-26T16:56:40.609Z,98340.75
2022-09-26T16:59:26.359Z,98339.25
2022-09-26T17:01:56.622Z,98323.50
2022-09-26T17:04:36.397Z,98308.72
2022-09-26T17:07:16.489Z,98308.22
2022-09-26T17:09:44.408Z,98311.75
2022-09-26T17:12:21.536Z,98337.94
2022-09-26T17:14:52.141Z,98346.41
2022-09-26T17:17:22.211Z,98350.34
2022-09-26T17:19:56.832Z,98346.75
2022-09-26T17:22:26.876Z,98357.94
2022-09-26T17:24:54.634Z,98357.19
2022-09-26T17:27:34.435Z,98343.81
2022-09-26T17:30:03.676Z,98351.53
2022-09-26T17:32:38.839Z,98355.03
2022-09-26T17:35:29.941Z,98384.25
2022-09-26T17:37:57.169Z,98382.41
2022-09-26T17:40:26.608Z,98359.38
2022-09-26T17:42:59.621Z,98357.16
2022-09-26T17:45:35.374Z,98371.13
2022-09-26T17:48:12.434Z,98375.00
2022-09-26T17:50:40.121Z,98369.41
2022-09-26T17:53:11.003Z,98372.25
2022-09-26T17:55:38.396Z,98382.72
2022-09-26T17:58:07.997Z,98400.47
2022-09-26T18:00:37.814Z,98409.38
2022-09-26T18:03:08.126Z,98394.66
2022-09-26T18:05:38.548Z,98395.13
2022-09-26T18:08:15.598Z,98389.84
2022-09-26T18:10:50.423Z,98400.38
2022-09-26T18:13:22.998Z,98397.34
2022-09-26T18:15:52.400Z,98401.69
2022-09-26T18:18:22.072Z,98409.47
2022-09-26T18:20:50.266Z,98394.50
2022-09-26T18:23:21.218Z,98414.63
2022-09-26T18:25:50.911Z,98403.56
2022-09-26T18:28:21.142Z,98394.75
2022-09-26T18:30:56.915Z,98389.22
2022-09-26T18:33:25.804Z,98393.94
2022-09-26T18:35:53.488Z,98393.44
2022-09-26T18:38:21.064Z,98396.25
2022-09-26T18:40:55.353Z,98404.81
2022-09-26T18:43:24.367Z,98403.19
2022-09-26T18:45:52.171Z,98407.88
2022-09-26T18:48:19.269Z,98408.69
2022-09-26T18:50:47.274Z,98412.13
2022-09-26T18:53:20.221Z,98410.44
2022-09-26T18:56:06.034Z,98413.75
2022-09-26T18:58:34.607Z,98417.28
2022-09-26T19:01:05.802Z,98424.00
2022-09-26T19:03:46.158Z,98427.66
2022-09-26T19:06:25.059Z,98433.22
2022-09-26T19:09:05.331Z,98429.06
2022-09-26T19:11:35.291Z,98428.63
2022-09-26T19:14:26.719Z,98431.97
2022-09-26T19:16:54.525Z,98429.47
2022-09-26T19:19:22.286Z,98427.56
2022-09-26T19:21:55.682Z,98430.91
2022-09-26T19:24:38.561Z,98427.78
2022-09-26T19:27:15.440Z,98428.81
2022-09-26T19:29:52.942Z,98431.25
2022-09-26T19:32:31.859Z,98422.06
2022-09-26T19:35:02.173Z,98422.06
2022-09-26T19:37:29.247Z,98428.97
2022-09-26T19:39:58.040Z,98428.78
2022-09-26T19:42:26.611Z,98435.41
2022-09-26T19:44:53.689Z,98436.84
2022-09-26T19:47:22.366Z,98434.94
2022-09-26T19:49:51.712Z,98446.09
2022-09-26T19:52:21.159Z,98442.09
2022-09-26T19:54:48.988Z,98442.09
2022-09-26T19:57:21.294Z,98443.06
2022-09-26T19:59:49.297Z,98446.66
2022-09-26T20:02:18.907Z,98454.72
2022-09-26T20:04:46.188Z,98457.63
2022-09-26T20:07:18.716Z,98453.28
2022-09-26T20:09:46.608Z,98450.81
2022-09-26T20:12:14.295Z,98448.94
2022-09-26T20:14:41.567Z,98441.38
2022-09-26T20:17:11.745Z,98455.81
2022-09-26T20:19:41.813Z,98458.81
2022-09-26T20:22:15.413Z,98468.13
2022-09-26T20:24:43.500Z,98473.25
2022-09-26T20:27:18.162Z,98477.97
2022-09-26T20:30:04.747Z,98492.91
2022-09-26T20:32:31.981Z,98497.13
2022-09-26T20:35:00.700Z,98508.69
2022-09-26T20:37:32.852Z,98506.47
2022-09-26T20:40:00.974Z,98517.00
2022-09-26T20:42:33.567Z,98511.72
2022-09-26T20:45:00.893Z,98519.63
2022-09-26T20:47:27.975Z,98535.28
2022-09-26T20:50:00.606Z,98522.78
2022-09-26T20:52:29.601Z,98523.03
2022-09-26T20:54:57.609Z,98529.63
2022-09-26T20:57:25.013Z,98534.78
2022-09-26T20:59:52.457Z,98533.31
2022-09-26T21:02:32.555Z,98533.84
2022-09-26T21:05:01.656Z,98530.72
2022-09-26T21:07:31.495Z,98530.25
2022-09-26T21:09:59.261Z,98527.31
2022-09-26T21:12:26.240Z,98544.38
2022-09-26T21:14:53.204Z,98550.25
2022-09-26T21:17:28.910Z,98546.38
2022-09-26T21:19:56.235Z,98558.03
2022-09-26T21:22:27.157Z,98552.66
2022-09-26T21:24:54.900Z,98554.78
2022-09-26T21:27:21.906Z,98555.00
2022-09-26T21:29:48.907Z,98559.34
2022-09-26T21:32:19.675Z,98553.50
2022-09-26T21:35:07.208Z,98569.13
2022-09-26T21:37:35.156Z,98563.47
2022-09-26T21:40:02.827Z,98571.44
2022-09-26T21:42:29.884Z,98569.88
2022-09-26T21:45:01.642Z,98576.19
2022-09-26T21:47:28.642Z,98582.81
2022-09-26T21:49:55.701Z,98582.28
2022-09-26T21:52:28.848Z,98580.53
2022-09-26T21:54:58.280Z,98584.94
2022-09-26T21:57:31.930Z,98578.03
2022-09-26T21:59:58.776Z,98577.03
2022-09-26T22:02:26.265Z,98579.22
2022-09-26T22:04:53.529Z,98593.81
2022-09-26T22:07:20.992Z,98581.16
2022-09-26T22:09:48.092Z,98581.72
2022-09-26T22:12:15.034Z,98583.19
2022-09-26T22:14:42.096Z,98577.09
2022-09-26T22:17:09.195Z,98572.94
2022-09-26T22:19:36.373Z,98575.34
2022-09-26T22:22:03.513Z,98574.34
2022-09-26T22:24:30.664Z,98585.53
2022-09-26T22:29:24.627Z,98572.47
2022-09-26T22:31:52.116Z,98569.84
2022-09-26T22:34:20.394Z,98569.91
2022-09-26T22:36:47.344Z,98576.06
2022-09-26T22:39:14.411Z,98576.59
2022-09-26T22:41:41.470Z,98574.41
2022-09-26T22:44:08.614Z,98569.28
2022-09-26T22:46:36.572Z,98580.63
2022-09-26T22:49:03.662Z,98588.00
2022-09-26T22:51:30.713Z,98577.84
2022-09-26T22:53:57.796Z,98576.38
2022-09-26T22:56:24.900Z,98587.13
2022-09-26T22:58:52.691Z,98582.47
2022-09-26T23:01:28.191Z,98583.50
2022-09-26T23:03:55.731Z,98582.75
2022-09-26T23:06:23.866Z,98589.59
2022-09-26T23:08:51.234Z,98584.94
2022-09-26T23:11:19.379Z,98580.72
2022-09-26T23:13:47.088Z,98588.78
2022-09-26T23:16:17.502Z,98592.50
2022-09-26T23:18:44.989Z,98587.91
2022-09-26T23:21:13.467Z,98594.06
2022-09-26T23:23:44.024Z,98589.91
2022-09-26T23:26:23.514Z,98586.00
2022-09-26T23:28:52.427Z,98594.34
2022-09-26T23:31:20.298Z,98591.72
2022-09-26T23:33:48.029Z,98593.16
2022-09-26T23:36:15.519Z,98604.34
2022-09-26T23:38:42.614Z,98591.88
2022-09-26T23:41:11.268Z,98592.31
2022-09-26T23:43:39.031Z,98579.63
2022-09-26T23:46:06.500Z,98578.16
2022-09-26T23:48:34.131Z,98576.19
2022-09-26T23:51:01.549Z,98587.19
2022-09-26T23:53:28.828Z,98595.22
2022-09-26T23:56:06.102Z,98588.41
2022-09-26T23:58:33.586Z,98577.22
